Aeroporto :
LOGIN :

Iscrizione | Disclaimer

   EN    FR    IT 

 










Sommario :    VFR   VFR Marginale   IFR   IFR Intensivo   IFR Molto Intensivo
Visibilità : 
Base nubi : 
>= 8 km
>= 3000ft
5 / 8 km
1000 / 3000 ft
1500m / 5 km
500 / 1000 ft
800 / 1500m
200 / 500 ft
< 800m
< 200 ft
Simboli :   Temporali  Nebbia  Neve Forte  Precipitazioni Forti  Vento > 20 kt
SIGMETs :   Varie  Temporali  Ghiacco  Turbolenza  Onda orograficha  Ceneri Vulcaniche






- Altitudine del aeroporto : 989 ft
- Codice IATA : TRN


LIMF - Torino Caselle

ULTIMO METAR :
  • 051320Z 28004KT 240V300 CAVOK 27/17 Q1007

METARs OBSOLETI :
  • 051250Z VRB02KT CAVOK 27/17 Q1007
  • 051220Z 09005KT 050V130 CAVOK 26/16 Q1007
  • 051150Z 12005KT 070V180 CAVOK 26/15 Q1008
  • 051120Z VRB02KT CAVOK 25/17 Q1008
  • 051050Z 14004KT 080V190 CAVOK 24/17 Q1008

TAF TAF LIMF
Valido dal 05 a 12 ore il 06 a 12 ore UTC


051100Z 0512/0612 VRB05KT 9999 FEW060



MetMap, La meteo Aeronautica in un colpo d'occhio ! - Copyright ORBIFLY Dicembre 2007 - Disclaimer

ORBIFLY MET'MAP TEAM :

Programmazione e sviluppo : Alexandra Zaïnal
Concezione : Baudouin d'Aumeries
Aiuto per la programmazione : Marc-Olivier Méhu
Supporto tecnico e logistico : Manuel Goepfert
Aiuto per la traduzione : Arnaldo La Scala

Contatto : metmap@orbifly.com




FONTI E CREDITI :

   NOAA